sensor_id;sensor_type;location;lat;lon;timestamp;P1;durP1;ratioP1;P2;durP2;ratioP2
69910;SDS011;63555;49.920;17.868;2023-08-30T00:04:29;22.27;;;6.73;;
69910;SDS011;63555;49.920;17.868;2023-08-30T00:09:29;16.95;;;7.10;;
69910;SDS011;63555;49.920;17.868;2023-08-30T00:14:30;24.67;;;7.83;;
69910;SDS011;63555;49.920;17.868;2023-08-30T00:19:30;29.83;;;7.97;;
69910;SDS011;63555;49.920;17.868;2023-08-30T00:24:31;36.42;;;8.73;;
69910;SDS011;63555;49.920;17.868;2023-08-30T00:29:32;39.53;;;9.53;;
69910;SDS011;63555;49.920;17.868;2023-08-30T00:34:32;40.53;;;10.97;;
69910;SDS011;63555;49.920;17.868;2023-08-30T00:39:32;43.43;;;10.03;;
69910;SDS011;63555;49.920;17.868;2023-08-30T00:44:33;68.87;;;11.50;;
69910;SDS011;63555;49.920;17.868;2023-08-30T00:49:33;67.18;;;10.95;;
69910;SDS011;63555;49.920;17.868;2023-08-30T00:54:34;62.63;;;11.50;;
69910;SDS011;63555;49.920;17.868;2023-08-30T00:59:35;68.07;;;10.87;;
69910;SDS011;63555;49.920;17.868;2023-08-30T01:04:36;52.78;;;10.07;;
69910;SDS011;63555;49.920;17.868;2023-08-30T01:09:37;71.87;;;10.73;;
69910;SDS011;63555;49.920;17.868;2023-08-30T01:14:43;56.50;;;10.23;;
69910;SDS011;63555;49.920;17.868;2023-08-30T01:25:00;66.00;;;10.97;;
69910;SDS011;63555;49.920;17.868;2023-08-30T01:30:15;74.40;;;12.60;;
69910;SDS011;63555;49.920;17.868;2023-08-30T01:35:18;78.70;;;13.00;;
69910;SDS011;63555;49.920;17.868;2023-08-30T01:40:19;129.80;;;14.50;;
69910;SDS011;63555;49.920;17.868;2023-08-30T01:45:20;114.22;;;13.15;;
69910;SDS011;63555;49.920;17.868;2023-08-30T01:50:23;65.75;;;12.50;;
69910;SDS011;63555;49.920;17.868;2023-08-30T01:55:24;49.05;;;11.50;;
69910;SDS011;63555;49.920;17.868;2023-08-30T02:00:28;44.57;;;9.20;;
69910;SDS011;63555;49.920;17.868;2023-08-30T02:05:29;41.83;;;9.98;;
69910;SDS011;63555;49.920;17.868;2023-08-30T02:10:34;45.20;;;9.23;;
69910;SDS011;63555;49.920;17.868;2023-08-30T02:15:35;39.65;;;8.30;;
69910;SDS011;63555;49.920;17.868;2023-08-30T02:20:37;34.50;;;7.43;;
69910;SDS011;63555;49.920;17.868;2023-08-30T02:25:37;36.23;;;7.33;;
69910;SDS011;63555;49.920;17.868;2023-08-30T02:30:38;27.97;;;6.57;;
69910;SDS011;63555;49.920;17.868;2023-08-30T02:35:38;23.23;;;6.85;;
69910;SDS011;63555;49.920;17.868;2023-08-30T02:40:39;31.07;;;6.00;;
69910;SDS011;63555;49.920;17.868;2023-08-30T02:45:39;24.80;;;5.87;;
69910;SDS011;63555;49.920;17.868;2023-08-30T02:50:40;23.13;;;6.00;;
69910;SDS011;63555;49.920;17.868;2023-08-30T02:55:41;35.70;;;6.87;;
69910;SDS011;63555;49.920;17.868;2023-08-30T03:00:41;45.07;;;7.27;;
69910;SDS011;63555;49.920;17.868;2023-08-30T03:05:43;35.88;;;6.20;;
69910;SDS011;63555;49.920;17.868;2023-08-30T03:10:43;43.37;;;6.60;;
69910;SDS011;63555;49.920;17.868;2023-08-30T03:15:44;39.00;;;7.47;;
69910;SDS011;63555;49.920;17.868;2023-08-30T03:20:44;55.47;;;6.90;;
69910;SDS011;63555;49.920;17.868;2023-08-30T03:25:45;33.87;;;7.23;;
69910;SDS011;63555;49.920;17.868;2023-08-30T03:30:45;48.33;;;7.77;;
69910;SDS011;63555;49.920;17.868;2023-08-30T03:35:45;35.47;;;7.67;;
69910;SDS011;63555;49.920;17.868;2023-08-30T03:40:52;52.20;;;7.70;;
69910;SDS011;63555;49.920;17.868;2023-08-30T03:45:53;39.78;;;8.00;;
69910;SDS011;63555;49.920;17.868;2023-08-30T03:50:54;29.63;;;7.20;;
69910;SDS011;63555;49.920;17.868;2023-08-30T03:55:55;40.65;;;7.30;;
69910;SDS011;63555;49.920;17.868;2023-08-30T04:00:56;27.33;;;6.03;;
69910;SDS011;63555;49.920;17.868;2023-08-30T04:05:57;59.67;;;7.82;;
69910;SDS011;63555;49.920;17.868;2023-08-30T04:10:57;51.37;;;7.37;;
69910;SDS011;63555;49.920;17.868;2023-08-30T04:15:58;43.03;;;6.37;;
69910;SDS011;63555;49.920;17.868;2023-08-30T04:20:59;34.17;;;6.50;;
69910;SDS011;63555;49.920;17.868;2023-08-30T04:26:02;23.47;;;5.53;;
69910;SDS011;63555;49.920;17.868;2023-08-30T04:31:02;43.40;;;6.57;;
69910;SDS011;63555;49.920;17.868;2023-08-30T04:36:02;21.83;;;5.80;;
69910;SDS011;63555;49.920;17.868;2023-08-30T04:41:04;39.13;;;6.07;;
69910;SDS011;63555;49.920;17.868;2023-08-30T04:46:04;22.70;;;5.33;;
69910;SDS011;63555;49.920;17.868;2023-08-30T04:51:05;18.87;;;4.50;;
69910;SDS011;63555;49.920;17.868;2023-08-30T04:56:11;12.20;;;3.97;;
69910;SDS011;63555;49.920;17.868;2023-08-30T05:01:13;20.95;;;4.35;;
69910;SDS011;63555;49.920;17.868;2023-08-30T05:06:13;22.50;;;4.13;;
69910;SDS011;63555;49.920;17.868;2023-08-30T05:11:16;25.45;;;4.28;;
69910;SDS011;63555;49.920;17.868;2023-08-30T05:16:16;13.77;;;3.87;;
69910;SDS011;63555;49.920;17.868;2023-08-30T05:21:17;14.43;;;3.53;;
69910;SDS011;63555;49.920;17.868;2023-08-30T05:26:17;12.00;;;3.28;;
69910;SDS011;63555;49.920;17.868;2023-08-30T05:31:19;14.40;;;3.47;;
69910;SDS011;63555;49.920;17.868;2023-08-30T05:36:19;16.80;;;5.07;;
69910;SDS011;63555;49.920;17.868;2023-08-30T05:41:20;22.10;;;4.93;;
69910;SDS011;63555;49.920;17.868;2023-08-30T05:46:20;21.37;;;3.93;;
69910;SDS011;63555;49.920;17.868;2023-08-30T05:51:21;23.67;;;6.47;;
69910;SDS011;63555;49.920;17.868;2023-08-30T05:56:21;13.23;;;4.67;;
69910;SDS011;63555;49.920;17.868;2023-08-30T06:01:23;19.17;;;4.10;;
69910;SDS011;63555;49.920;17.868;2023-08-30T06:06:24;8.07;;;2.97;;
69910;SDS011;63555;49.920;17.868;2023-08-30T06:11:25;10.70;;;2.67;;
69910;SDS011;63555;49.920;17.868;2023-08-30T06:16:25;14.60;;;2.90;;
69910;SDS011;63555;49.920;17.868;2023-08-30T06:21:26;7.47;;;2.47;;
69910;SDS011;63555;49.920;17.868;2023-08-30T06:26:26;13.10;;;3.40;;
69910;SDS011;63555;49.920;17.868;2023-08-30T06:31:26;11.40;;;3.03;;
69910;SDS011;63555;49.920;17.868;2023-08-30T06:36:29;12.48;;;3.55;;
69910;SDS011;63555;49.920;17.868;2023-08-30T06:41:29;10.20;;;3.22;;
69910;SDS011;63555;49.920;17.868;2023-08-30T06:46:29;11.57;;;3.03;;
69910;SDS011;63555;49.920;17.868;2023-08-30T06:51:30;9.00;;;3.20;;
69910;SDS011;63555;49.920;17.868;2023-08-30T06:56:30;6.20;;;2.37;;
69910;SDS011;63555;49.920;17.868;2023-08-30T07:01:31;4.43;;;2.00;;
69910;SDS011;63555;49.920;17.868;2023-08-30T07:06:31;5.90;;;2.60;;
69910;SDS011;63555;49.920;17.868;2023-08-30T07:11:32;6.00;;;2.20;;
69910;SDS011;63555;49.920;17.868;2023-08-30T07:16:34;4.10;;;2.10;;
69910;SDS011;63555;49.920;17.868;2023-08-30T07:21:34;7.30;;;1.85;;
69910;SDS011;63555;49.920;17.868;2023-08-30T07:26:38;6.60;;;2.07;;
69910;SDS011;63555;49.920;17.868;2023-08-30T07:31:38;4.67;;;1.80;;
69910;SDS011;63555;49.920;17.868;2023-08-30T07:36:41;3.53;;;1.42;;
69910;SDS011;63555;49.920;17.868;2023-08-30T07:41:41;3.77;;;1.33;;
69910;SDS011;63555;49.920;17.868;2023-08-30T07:46:42;3.17;;;1.20;;
69910;SDS011;63555;49.920;17.868;2023-08-30T07:51:42;3.97;;;1.20;;
69910;SDS011;63555;49.920;17.868;2023-08-30T07:56:43;4.30;;;0.80;;
69910;SDS011;63555;49.920;17.868;2023-08-30T08:01:43;2.57;;;1.00;;
69910;SDS011;63555;49.920;17.868;2023-08-30T08:06:43;2.93;;;0.50;;
69910;SDS011;63555;49.920;17.868;2023-08-30T08:11:44;3.73;;;0.67;;
69910;SDS011;63555;49.920;17.868;2023-08-30T08:16:44;3.53;;;0.70;;
69910;SDS011;63555;49.920;17.868;2023-08-30T08:21:45;1.40;;;0.40;;
69910;SDS011;63555;49.920;17.868;2023-08-30T08:26:45;2.17;;;0.40;;
69910;SDS011;63555;49.920;17.868;2023-08-30T08:31:46;2.28;;;0.50;;
69910;SDS011;63555;49.920;17.868;2023-08-30T08:36:46;3.03;;;0.70;;
69910;SDS011;63555;49.920;17.868;2023-08-30T08:41:47;3.40;;;0.50;;
69910;SDS011;63555;49.920;17.868;2023-08-30T08:46:48;2.00;;;0.53;;
69910;SDS011;63555;49.920;17.868;2023-08-30T08:51:49;3.35;;;0.60;;
69910;SDS011;63555;49.920;17.868;2023-08-30T08:56:49;2.93;;;0.63;;
69910;SDS011;63555;49.920;17.868;2023-08-30T09:01:50;2.57;;;0.70;;
69910;SDS011;63555;49.920;17.868;2023-08-30T09:06:50;2.00;;;0.50;;
69910;SDS011;63555;49.920;17.868;2023-08-30T09:11:51;2.00;;;0.60;;
69910;SDS011;63555;49.920;17.868;2023-08-30T09:16:58;3.33;;;0.87;;
69910;SDS011;63555;49.920;17.868;2023-08-30T09:22:01;2.20;;;0.57;;
69910;SDS011;63555;49.920;17.868;2023-08-30T09:27:01;3.00;;;0.40;;
69910;SDS011;63555;49.920;17.868;2023-08-30T09:32:03;1.50;;;0.50;;
69910;SDS011;63555;49.920;17.868;2023-08-30T09:37:04;2.00;;;0.60;;
69910;SDS011;63555;49.920;17.868;2023-08-30T09:42:04;1.70;;;0.60;;
69910;SDS011;63555;49.920;17.868;2023-08-30T09:47:05;2.23;;;0.70;;
69910;SDS011;63555;49.920;17.868;2023-08-30T09:52:05;3.03;;;0.70;;
69910;SDS011;63555;49.920;17.868;2023-08-30T09:57:09;1.63;;;0.50;;
69910;SDS011;63555;49.920;17.868;2023-08-30T10:02:10;1.95;;;0.55;;
69910;SDS011;63555;49.920;17.868;2023-08-30T10:07:10;1.47;;;0.50;;
69910;SDS011;63555;49.920;17.868;2023-08-30T10:12:11;1.30;;;0.50;;
69910;SDS011;63555;49.920;17.868;2023-08-30T10:17:12;1.85;;;0.50;;
69910;SDS011;63555;49.920;17.868;2023-08-30T10:22:16;1.80;;;0.45;;
69910;SDS011;63555;49.920;17.868;2023-08-30T10:27:17;1.30;;;0.30;;
69910;SDS011;63555;49.920;17.868;2023-08-30T10:32:20;1.65;;;0.60;;
69910;SDS011;63555;49.920;17.868;2023-08-30T10:37:22;1.60;;;0.40;;
69910;SDS011;63555;49.920;17.868;2023-08-30T10:42:24;1.48;;;0.47;;
69910;SDS011;63555;49.920;17.868;2023-08-30T10:47:25;1.90;;;0.53;;
69910;SDS011;63555;49.920;17.868;2023-08-30T10:52:29;1.77;;;0.50;;
69910;SDS011;63555;49.920;17.868;2023-08-30T10:57:29;1.37;;;0.50;;
69910;SDS011;63555;49.920;17.868;2023-08-30T11:02:30;1.50;;;0.40;;
69910;SDS011;63555;49.920;17.868;2023-08-30T11:07:32;1.33;;;0.47;;
69910;SDS011;63555;49.920;17.868;2023-08-30T11:12:32;3.63;;;0.40;;
69910;SDS011;63555;49.920;17.868;2023-08-30T11:17:33;1.70;;;0.40;;
69910;SDS011;63555;49.920;17.868;2023-08-30T11:22:36;2.85;;;0.50;;
69910;SDS011;63555;49.920;17.868;2023-08-30T11:27:41;3.35;;;0.60;;
69910;SDS011;63555;49.920;17.868;2023-08-30T11:32:42;1.48;;;0.45;;
69910;SDS011;63555;49.920;17.868;2023-08-30T11:37:43;1.50;;;0.50;;
69910;SDS011;63555;49.920;17.868;2023-08-30T11:42:43;1.58;;;0.50;;
69910;SDS011;63555;49.920;17.868;2023-08-30T11:47:44;1.93;;;0.60;;
69910;SDS011;63555;49.920;17.868;2023-08-30T11:52:45;1.60;;;0.60;;
69910;SDS011;63555;49.920;17.868;2023-08-30T11:57:49;3.35;;;0.70;;
69910;SDS011;63555;49.920;17.868;2023-08-30T12:02:50;1.80;;;0.55;;
69910;SDS011;63555;49.920;17.868;2023-08-30T12:07:50;2.90;;;0.70;;
69910;SDS011;63555;49.920;17.868;2023-08-30T12:12:51;2.93;;;0.93;;
69910;SDS011;63555;49.920;17.868;2023-08-30T12:17:51;2.00;;;0.80;;
69910;SDS011;63555;49.920;17.868;2023-08-30T12:22:52;1.97;;;0.80;;
69910;SDS011;63555;49.920;17.868;2023-08-30T12:27:53;4.15;;;0.70;;
69910;SDS011;63555;49.920;17.868;2023-08-30T12:33:00;2.30;;;0.90;;
69910;SDS011;63555;49.920;17.868;2023-08-30T12:38:03;1.80;;;0.70;;
69910;SDS011;63555;49.920;17.868;2023-08-30T12:43:04;2.35;;;0.75;;
69910;SDS011;63555;49.920;17.868;2023-08-30T12:48:04;1.30;;;0.40;;
69910;SDS011;63555;49.920;17.868;2023-08-30T12:53:05;1.80;;;0.50;;
69910;SDS011;63555;49.920;17.868;2023-08-30T12:58:06;8.45;;;1.25;;
69910;SDS011;63555;49.920;17.868;2023-08-30T13:03:07;1.80;;;0.70;;
69910;SDS011;63555;49.920;17.868;2023-08-30T13:08:08;2.33;;;0.77;;
69910;SDS011;63555;49.920;17.868;2023-08-30T13:13:08;2.97;;;0.80;;
69910;SDS011;63555;49.920;17.868;2023-08-30T13:18:09;2.00;;;0.80;;
69910;SDS011;63555;49.920;17.868;2023-08-30T13:23:09;2.50;;;0.80;;
69910;SDS011;63555;49.920;17.868;2023-08-30T13:28:10;3.03;;;1.25;;
69910;SDS011;63555;49.920;17.868;2023-08-30T13:33:10;2.33;;;0.90;;
69910;SDS011;63555;49.920;17.868;2023-08-30T13:38:11;4.07;;;1.00;;
69910;SDS011;63555;49.920;17.868;2023-08-30T13:43:12;3.23;;;1.00;;
69910;SDS011;63555;49.920;17.868;2023-08-30T13:48:12;2.40;;;1.00;;
69910;SDS011;63555;49.920;17.868;2023-08-30T13:53:13;2.23;;;0.97;;
69910;SDS011;63555;49.920;17.868;2023-08-30T13:58:13;2.95;;;1.20;;
69910;SDS011;63555;49.920;17.868;2023-08-30T14:03:13;2.35;;;1.15;;
69910;SDS011;63555;49.920;17.868;2023-08-30T14:08:15;3.17;;;1.10;;
69910;SDS011;63555;49.920;17.868;2023-08-30T14:13:16;1.90;;;0.80;;
69910;SDS011;63555;49.920;17.868;2023-08-30T14:18:16;3.37;;;1.10;;
69910;SDS011;63555;49.920;17.868;2023-08-30T14:23:17;2.10;;;1.10;;
69910;SDS011;63555;49.920;17.868;2023-08-30T14:28:17;2.23;;;0.97;;
69910;SDS011;63555;49.920;17.868;2023-08-30T14:33:18;2.50;;;1.20;;
69910;SDS011;63555;49.920;17.868;2023-08-30T14:38:19;4.90;;;1.23;;
69910;SDS011;63555;49.920;17.868;2023-08-30T14:43:19;4.05;;;1.30;;
69910;SDS011;63555;49.920;17.868;2023-08-30T14:48:20;2.93;;;1.40;;
69910;SDS011;63555;49.920;17.868;2023-08-30T14:53:20;3.13;;;1.40;;
69910;SDS011;63555;49.920;17.868;2023-08-30T14:58:21;2.27;;;1.20;;
69910;SDS011;63555;49.920;17.868;2023-08-30T15:03:21;3.00;;;1.83;;
69910;SDS011;63555;49.920;17.868;2023-08-30T15:08:22;3.23;;;1.50;;
69910;SDS011;63555;49.920;17.868;2023-08-30T15:13:23;3.42;;;1.75;;
69910;SDS011;63555;49.920;17.868;2023-08-30T15:18:24;3.07;;;1.80;;
69910;SDS011;63555;49.920;17.868;2023-08-30T15:23:24;3.40;;;1.80;;
69910;SDS011;63555;49.920;17.868;2023-08-30T15:28:25;2.87;;;1.60;;
69910;SDS011;63555;49.920;17.868;2023-08-30T15:33:26;4.03;;;1.83;;
69910;SDS011;63555;49.920;17.868;2023-08-30T15:38:26;3.10;;;1.38;;
69910;SDS011;63555;49.920;17.868;2023-08-30T15:43:27;3.60;;;1.70;;
69910;SDS011;63555;49.920;17.868;2023-08-30T15:48:27;2.80;;;1.50;;
69910;SDS011;63555;49.920;17.868;2023-08-30T15:53:28;3.27;;;1.60;;
69910;SDS011;63555;49.920;17.868;2023-08-30T15:58:28;9.90;;;2.47;;
69910;SDS011;63555;49.920;17.868;2023-08-30T16:03:29;3.83;;;1.60;;
69910;SDS011;63555;49.920;17.868;2023-08-30T16:08:29;3.83;;;1.63;;
69910;SDS011;63555;49.920;17.868;2023-08-30T16:13:30;3.47;;;1.77;;
69910;SDS011;63555;49.920;17.868;2023-08-30T16:18:30;5.10;;;2.03;;
69910;SDS011;63555;49.920;17.868;2023-08-30T16:23:31;4.00;;;1.80;;
69910;SDS011;63555;49.920;17.868;2023-08-30T16:28:32;3.23;;;1.70;;
69910;SDS011;63555;49.920;17.868;2023-08-30T16:33:33;3.33;;;1.60;;
69910;SDS011;63555;49.920;17.868;2023-08-30T16:38:33;3.47;;;1.70;;
69910;SDS011;63555;49.920;17.868;2023-08-30T16:43:34;2.73;;;1.50;;
69910;SDS011;63555;49.920;17.868;2023-08-30T16:48:34;3.57;;;1.90;;
69910;SDS011;63555;49.920;17.868;2023-08-30T16:53:34;4.03;;;2.23;;
69910;SDS011;63555;49.920;17.868;2023-08-30T16:58:35;3.70;;;2.30;;
69910;SDS011;63555;49.920;17.868;2023-08-30T17:03:36;3.20;;;2.00;;
69910;SDS011;63555;49.920;17.868;2023-08-30T17:08:36;3.47;;;1.98;;
69910;SDS011;63555;49.920;17.868;2023-08-30T17:13:37;3.97;;;2.40;;
69910;SDS011;63555;49.920;17.868;2023-08-30T17:18:37;6.23;;;2.27;;
69910;SDS011;63555;49.920;17.868;2023-08-30T17:23:39;4.13;;;2.50;;
69910;SDS011;63555;49.920;17.868;2023-08-30T17:28:40;4.07;;;2.22;;
69910;SDS011;63555;49.920;17.868;2023-08-30T17:33:40;4.90;;;2.97;;
69910;SDS011;63555;49.920;17.868;2023-08-30T17:38:41;6.10;;;2.10;;
69910;SDS011;63555;49.920;17.868;2023-08-30T17:43:41;4.23;;;2.40;;
69910;SDS011;63555;49.920;17.868;2023-08-30T17:48:42;4.13;;;2.60;;
69910;SDS011;63555;49.920;17.868;2023-08-30T17:53:44;4.68;;;2.40;;
69910;SDS011;63555;49.920;17.868;2023-08-30T17:58:48;3.83;;;2.30;;
69910;SDS011;63555;49.920;17.868;2023-08-30T18:03:49;4.90;;;2.70;;
69910;SDS011;63555;49.920;17.868;2023-08-30T18:08:50;4.67;;;2.70;;
69910;SDS011;63555;49.920;17.868;2023-08-30T18:13:50;4.13;;;2.30;;
69910;SDS011;63555;49.920;17.868;2023-08-30T18:18:51;5.07;;;2.83;;
69910;SDS011;63555;49.920;17.868;2023-08-30T18:29:18;5.40;;;3.15;;
69910;SDS011;63555;49.920;17.868;2023-08-30T18:34:19;5.10;;;2.67;;
69910;SDS011;63555;49.920;17.868;2023-08-30T18:39:20;4.18;;;2.58;;
69910;SDS011;63555;49.920;17.868;2023-08-30T18:44:22;4.90;;;2.33;;
69910;SDS011;63555;49.920;17.868;2023-08-30T18:49:22;4.30;;;2.50;;
69910;SDS011;63555;49.920;17.868;2023-08-30T18:54:23;3.83;;;2.30;;
69910;SDS011;63555;49.920;17.868;2023-08-30T18:59:23;3.73;;;1.83;;
69910;SDS011;63555;49.920;17.868;2023-08-30T19:04:24;4.20;;;2.40;;
69910;SDS011;63555;49.920;17.868;2023-08-30T19:09:25;5.53;;;2.87;;
69910;SDS011;63555;49.920;17.868;2023-08-30T19:14:27;5.37;;;2.90;;
69910;SDS011;63555;49.920;17.868;2023-08-30T19:19:27;8.10;;;3.17;;
69910;SDS011;63555;49.920;17.868;2023-08-30T19:24:28;5.10;;;2.80;;
69910;SDS011;63555;49.920;17.868;2023-08-30T19:29:29;5.68;;;2.95;;
69910;SDS011;63555;49.920;17.868;2023-08-30T19:34:29;5.63;;;2.53;;
69910;SDS011;63555;49.920;17.868;2023-08-30T19:39:30;4.20;;;2.30;;
69910;SDS011;63555;49.920;17.868;2023-08-30T19:44:30;7.80;;;2.50;;
69910;SDS011;63555;49.920;17.868;2023-08-30T19:49:31;4.80;;;2.90;;
69910;SDS011;63555;49.920;17.868;2023-08-30T19:54:31;8.80;;;3.00;;
69910;SDS011;63555;49.920;17.868;2023-08-30T19:59:31;5.53;;;2.93;;
69910;SDS011;63555;49.920;17.868;2023-08-30T20:04:34;5.20;;;2.75;;
69910;SDS011;63555;49.920;17.868;2023-08-30T20:09:35;10.77;;;3.20;;
69910;SDS011;63555;49.920;17.868;2023-08-30T20:14:35;5.77;;;2.97;;
69910;SDS011;63555;49.920;17.868;2023-08-30T20:19:36;6.63;;;2.85;;
69910;SDS011;63555;49.920;17.868;2023-08-30T20:24:37;5.23;;;2.80;;
69910;SDS011;63555;49.920;17.868;2023-08-30T20:29:38;5.63;;;3.05;;
69910;SDS011;63555;49.920;17.868;2023-08-30T20:34:38;10.03;;;3.30;;
69910;SDS011;63555;49.920;17.868;2023-08-30T20:39:39;5.13;;;2.70;;
69910;SDS011;63555;49.920;17.868;2023-08-30T20:44:39;7.07;;;2.63;;
69910;SDS011;63555;49.920;17.868;2023-08-30T20:49:40;5.10;;;2.90;;
69910;SDS011;63555;49.920;17.868;2023-08-30T20:54:40;5.15;;;2.47;;
69910;SDS011;63555;49.920;17.868;2023-08-30T20:59:41;6.97;;;3.10;;
69910;SDS011;63555;49.920;17.868;2023-08-30T21:04:42;6.13;;;3.60;;
69910;SDS011;63555;49.920;17.868;2023-08-30T21:09:42;7.63;;;3.67;;
69910;SDS011;63555;49.920;17.868;2023-08-30T21:14:43;5.95;;;3.50;;
69910;SDS011;63555;49.920;17.868;2023-08-30T21:19:44;5.83;;;3.40;;
69910;SDS011;63555;49.920;17.868;2023-08-30T21:24:44;6.73;;;3.83;;
69910;SDS011;63555;49.920;17.868;2023-08-30T21:29:44;5.70;;;3.07;;
69910;SDS011;63555;49.920;17.868;2023-08-30T21:34:45;5.10;;;3.33;;
69910;SDS011;63555;49.920;17.868;2023-08-30T21:39:45;6.47;;;3.87;;
69910;SDS011;63555;49.920;17.868;2023-08-30T21:44:47;6.55;;;4.28;;
69910;SDS011;63555;49.920;17.868;2023-08-30T21:49:47;8.23;;;4.10;;
69910;SDS011;63555;49.920;17.868;2023-08-30T21:54:47;8.03;;;4.47;;
69910;SDS011;63555;49.920;17.868;2023-08-30T21:59:48;7.07;;;3.70;;
69910;SDS011;63555;49.920;17.868;2023-08-30T22:04:48;6.93;;;3.80;;
69910;SDS011;63555;49.920;17.868;2023-08-30T22:09:48;5.57;;;3.13;;
69910;SDS011;63555;49.920;17.868;2023-08-30T22:14:49;6.57;;;3.60;;
69910;SDS011;63555;49.920;17.868;2023-08-30T22:19:49;5.83;;;3.37;;
69910;SDS011;63555;49.920;17.868;2023-08-30T22:24:50;8.90;;;3.83;;
69910;SDS011;63555;49.920;17.868;2023-08-30T22:29:51;6.88;;;3.60;;
69910;SDS011;63555;49.920;17.868;2023-08-30T22:34:52;6.50;;;3.43;;
69910;SDS011;63555;49.920;17.868;2023-08-30T22:39:52;8.60;;;3.50;;
69910;SDS011;63555;49.920;17.868;2023-08-30T22:44:53;5.63;;;3.07;;
69910;SDS011;63555;49.920;17.868;2023-08-30T22:49:53;5.78;;;3.38;;
69910;SDS011;63555;49.920;17.868;2023-08-30T22:54:54;7.53;;;3.30;;
69910;SDS011;63555;49.920;17.868;2023-08-30T22:59:55;6.60;;;2.60;;
69910;SDS011;63555;49.920;17.868;2023-08-30T23:04:55;4.93;;;2.10;;
69910;SDS011;63555;49.920;17.868;2023-08-30T23:09:55;4.53;;;2.20;;
69910;SDS011;63555;49.920;17.868;2023-08-30T23:14:56;3.67;;;2.00;;
69910;SDS011;63555;49.920;17.868;2023-08-30T23:19:57;4.32;;;2.05;;
69910;SDS011;63555;49.920;17.868;2023-08-30T23:24:59;4.53;;;1.70;;
69910;SDS011;63555;49.920;17.868;2023-08-30T23:30:00;4.70;;;1.90;;
69910;SDS011;63555;49.920;17.868;2023-08-30T23:35:06;4.93;;;2.00;;
69910;SDS011;63555;49.920;17.868;2023-08-30T23:40:07;3.88;;;1.55;;
69910;SDS011;63555;49.920;17.868;2023-08-30T23:45:09;3.55;;;1.88;;
69910;SDS011;63555;49.920;17.868;2023-08-30T23:50:10;6.80;;;1.80;;
69910;SDS011;63555;49.920;17.868;2023-08-30T23:55:10;3.80;;;1.60;;
